sensor_id;sensor_type;location;lat;lon;timestamp;P1;durP1;ratioP1;P2;durP2;ratioP2
58876;SDS011;44659;47.002;9.536;2022-09-01T00:00:38;9.75;;;4.65;;
58876;SDS011;44659;47.002;9.536;2022-09-01T00:03:05;6.75;;;4.30;;
58876;SDS011;44659;47.002;9.536;2022-09-01T00:05:31;8.60;;;4.30;;
58876;SDS011;44659;47.002;9.536;2022-09-01T00:07:57;9.18;;;4.40;;
58876;SDS011;44659;47.002;9.536;2022-09-01T00:10:22;7.75;;;4.32;;
58876;SDS011;44659;47.002;9.536;2022-09-01T00:12:47;6.78;;;4.53;;
58876;SDS011;44659;47.002;9.536;2022-09-01T00:15:13;7.07;;;4.67;;
58876;SDS011;44659;47.002;9.536;2022-09-01T00:17:38;6.80;;;3.92;;
58876;SDS011;44659;47.002;9.536;2022-09-01T00:20:04;7.40;;;4.72;;
58876;SDS011;44659;47.002;9.536;2022-09-01T00:22:29;6.72;;;4.43;;
58876;SDS011;44659;47.002;9.536;2022-09-01T00:24:55;8.13;;;4.47;;
58876;SDS011;44659;47.002;9.536;2022-09-01T00:27:20;7.22;;;4.65;;
58876;SDS011;44659;47.002;9.536;2022-09-01T00:29:45;7.40;;;5.05;;
58876;SDS011;44659;47.002;9.536;2022-09-01T00:32:11;7.27;;;4.77;;
58876;SDS011;44659;47.002;9.536;2022-09-01T00:34:36;8.70;;;4.80;;
58876;SDS011;44659;47.002;9.536;2022-09-01T00:37:01;8.30;;;4.43;;
58876;SDS011;44659;47.002;9.536;2022-09-01T00:39:26;7.63;;;4.47;;
58876;SDS011;44659;47.002;9.536;2022-09-01T00:41:51;7.83;;;4.40;;
58876;SDS011;44659;47.002;9.536;2022-09-01T00:44:18;7.18;;;4.47;;
58876;SDS011;44659;47.002;9.536;2022-09-01T00:46:48;5.68;;;4.18;;
58876;SDS011;44659;47.002;9.536;2022-09-01T00:51:39;6.87;;;4.87;;
58876;SDS011;44659;47.002;9.536;2022-09-01T00:54:06;6.22;;;4.40;;
58876;SDS011;44659;47.002;9.536;2022-09-01T00:56:33;12.05;;;4.13;;
58876;SDS011;44659;47.002;9.536;2022-09-01T00:58:59;9.98;;;3.90;;
58876;SDS011;44659;47.002;9.536;2022-09-01T01:01:24;4.90;;;3.53;;
58876;SDS011;44659;47.002;9.536;2022-09-01T01:03:50;7.10;;;3.70;;
58876;SDS011;44659;47.002;9.536;2022-09-01T01:06:15;5.50;;;3.63;;
58876;SDS011;44659;47.002;9.536;2022-09-01T01:08:44;6.07;;;3.88;;
58876;SDS011;44659;47.002;9.536;2022-09-01T01:11:22;6.22;;;4.13;;
58876;SDS011;44659;47.002;9.536;2022-09-01T01:13:49;10.20;;;4.32;;
58876;SDS011;44659;47.002;9.536;2022-09-01T01:16:15;7.93;;;4.25;;
58876;SDS011;44659;47.002;9.536;2022-09-01T01:18:41;8.43;;;4.68;;
58876;SDS011;44659;47.002;9.536;2022-09-01T01:21:06;7.00;;;4.70;;
58876;SDS011;44659;47.002;9.536;2022-09-01T01:24:05;7.75;;;4.80;;
58876;SDS011;44659;47.002;9.536;2022-09-01T01:26:33;7.75;;;5.65;;
58876;SDS011;44659;47.002;9.536;2022-09-01T01:28:58;7.85;;;5.18;;
58876;SDS011;44659;47.002;9.536;2022-09-01T01:31:26;7.55;;;5.28;;
58876;SDS011;44659;47.002;9.536;2022-09-01T01:33:52;11.07;;;5.17;;
58876;SDS011;44659;47.002;9.536;2022-09-01T01:36:20;8.25;;;4.47;;
58876;SDS011;44659;47.002;9.536;2022-09-01T01:38:55;9.15;;;5.43;;
58876;SDS011;44659;47.002;9.536;2022-09-01T01:41:27;8.65;;;5.65;;
58876;SDS011;44659;47.002;9.536;2022-09-01T01:43:54;8.38;;;5.75;;
58876;SDS011;44659;47.002;9.536;2022-09-01T01:46:19;9.43;;;5.18;;
58876;SDS011;44659;47.002;9.536;2022-09-01T01:48:44;7.53;;;5.28;;
58876;SDS011;44659;47.002;9.536;2022-09-01T01:51:11;8.35;;;5.53;;
58876;SDS011;44659;47.002;9.536;2022-09-01T01:53:37;10.57;;;5.13;;
58876;SDS011;44659;47.002;9.536;2022-09-01T01:56:03;11.18;;;5.32;;
58876;SDS011;44659;47.002;9.536;2022-09-01T01:58:30;9.20;;;5.50;;
58876;SDS011;44659;47.002;9.536;2022-09-01T02:00:55;8.77;;;5.53;;
58876;SDS011;44659;47.002;9.536;2022-09-01T02:03:22;9.73;;;5.55;;
58876;SDS011;44659;47.002;9.536;2022-09-01T02:05:50;11.98;;;5.65;;
58876;SDS011;44659;47.002;9.536;2022-09-01T02:08:16;7.38;;;5.32;;
58876;SDS011;44659;47.002;9.536;2022-09-01T02:10:45;7.80;;;5.25;;
58876;SDS011;44659;47.002;9.536;2022-09-01T02:13:11;10.30;;;5.13;;
58876;SDS011;44659;47.002;9.536;2022-09-01T02:15:41;7.15;;;5.15;;
58876;SDS011;44659;47.002;9.536;2022-09-01T02:18:12;7.70;;;5.25;;
58876;SDS011;44659;47.002;9.536;2022-09-01T02:20:38;7.80;;;5.25;;
58876;SDS011;44659;47.002;9.536;2022-09-01T02:23:05;6.68;;;5.10;;
58876;SDS011;44659;47.002;9.536;2022-09-01T02:25:35;7.65;;;5.35;;
58876;SDS011;44659;47.002;9.536;2022-09-01T02:28:01;11.57;;;6.13;;
58876;SDS011;44659;47.002;9.536;2022-09-01T02:30:28;8.63;;;5.47;;
58876;SDS011;44659;47.002;9.536;2022-09-01T02:32:56;8.55;;;5.30;;
58876;SDS011;44659;47.002;9.536;2022-09-01T02:35:22;10.30;;;6.13;;
58876;SDS011;44659;47.002;9.536;2022-09-01T02:37:52;8.57;;;5.43;;
58876;SDS011;44659;47.002;9.536;2022-09-01T02:40:20;8.02;;;5.60;;
58876;SDS011;44659;47.002;9.536;2022-09-01T02:42:45;9.52;;;6.03;;
58876;SDS011;44659;47.002;9.536;2022-09-01T02:45:11;7.80;;;5.35;;
58876;SDS011;44659;47.002;9.536;2022-09-01T02:47:39;7.43;;;5.30;;
58876;SDS011;44659;47.002;9.536;2022-09-01T02:50:06;9.07;;;5.88;;
58876;SDS011;44659;47.002;9.536;2022-09-01T02:52:37;8.20;;;5.55;;
58876;SDS011;44659;47.002;9.536;2022-09-01T02:55:04;7.57;;;5.05;;
58876;SDS011;44659;47.002;9.536;2022-09-01T02:57:30;7.63;;;5.15;;
58876;SDS011;44659;47.002;9.536;2022-09-01T02:59:58;7.53;;;5.15;;
58876;SDS011;44659;47.002;9.536;2022-09-01T03:02:23;7.57;;;4.95;;
58876;SDS011;44659;47.002;9.536;2022-09-01T03:04:52;11.48;;;5.45;;
58876;SDS011;44659;47.002;9.536;2022-09-01T03:07:19;9.75;;;5.53;;
58876;SDS011;44659;47.002;9.536;2022-09-01T03:09:47;7.93;;;5.25;;
58876;SDS011;44659;47.002;9.536;2022-09-01T03:12:12;11.48;;;5.80;;
58876;SDS011;44659;47.002;9.536;2022-09-01T03:14:38;8.48;;;5.35;;
58876;SDS011;44659;47.002;9.536;2022-09-01T03:17:03;11.23;;;6.00;;
58876;SDS011;44659;47.002;9.536;2022-09-01T03:19:29;10.10;;;5.57;;
58876;SDS011;44659;47.002;9.536;2022-09-01T03:21:58;10.57;;;5.72;;
58876;SDS011;44659;47.002;9.536;2022-09-01T03:24:24;9.07;;;5.53;;
58876;SDS011;44659;47.002;9.536;2022-09-01T03:26:49;7.97;;;5.70;;
58876;SDS011;44659;47.002;9.536;2022-09-01T03:29:14;8.35;;;5.90;;
58876;SDS011;44659;47.002;9.536;2022-09-01T03:31:39;9.47;;;6.00;;
58876;SDS011;44659;47.002;9.536;2022-09-01T03:34:06;9.98;;;5.85;;
58876;SDS011;44659;47.002;9.536;2022-09-01T03:36:34;8.80;;;5.43;;
58876;SDS011;44659;47.002;9.536;2022-09-01T03:39:00;9.27;;;5.70;;
58876;SDS011;44659;47.002;9.536;2022-09-01T03:41:26;9.15;;;5.30;;
58876;SDS011;44659;47.002;9.536;2022-09-01T03:43:55;8.40;;;5.38;;
58876;SDS011;44659;47.002;9.536;2022-09-01T03:46:22;8.40;;;5.13;;
58876;SDS011;44659;47.002;9.536;2022-09-01T03:48:49;7.90;;;5.53;;
58876;SDS011;44659;47.002;9.536;2022-09-01T03:51:15;10.25;;;5.60;;
58876;SDS011;44659;47.002;9.536;2022-09-01T03:53:40;9.85;;;6.45;;
58876;SDS011;44659;47.002;9.536;2022-09-01T03:58:51;9.55;;;5.97;;
58876;SDS011;44659;47.002;9.536;2022-09-01T04:01:17;8.15;;;6.05;;
58876;SDS011;44659;47.002;9.536;2022-09-01T04:03:43;8.77;;;6.10;;
58876;SDS011;44659;47.002;9.536;2022-09-01T04:06:13;8.10;;;5.82;;
58876;SDS011;44659;47.002;9.536;2022-09-01T04:08:38;14.25;;;6.88;;
58876;SDS011;44659;47.002;9.536;2022-09-01T04:11:10;12.35;;;6.22;;
58876;SDS011;44659;47.002;9.536;2022-09-01T04:32:39;9.30;;;6.05;;
58876;SDS011;44659;47.002;9.536;2022-09-01T04:35:06;7.93;;;5.82;;
58876;SDS011;44659;47.002;9.536;2022-09-01T04:37:32;9.02;;;6.22;;
58876;SDS011;44659;47.002;9.536;2022-09-01T04:40:00;11.95;;;5.85;;
58876;SDS011;44659;47.002;9.536;2022-09-01T04:42:27;10.45;;;6.15;;
58876;SDS011;44659;47.002;9.536;2022-09-01T04:44:53;9.95;;;6.43;;
58876;SDS011;44659;47.002;9.536;2022-09-01T04:47:20;13.20;;;6.32;;
58876;SDS011;44659;47.002;9.536;2022-09-01T04:49:54;10.57;;;6.22;;
58876;SDS011;44659;47.002;9.536;2022-09-01T04:52:21;8.95;;;6.00;;
58876;SDS011;44659;47.002;9.536;2022-09-01T04:54:47;7.60;;;5.53;;
58876;SDS011;44659;47.002;9.536;2022-09-01T04:57:12;10.05;;;5.80;;
58876;SDS011;44659;47.002;9.536;2022-09-01T04:59:38;9.73;;;5.93;;
58876;SDS011;44659;47.002;9.536;2022-09-01T05:02:03;8.90;;;5.93;;
58876;SDS011;44659;47.002;9.536;2022-09-01T05:04:33;10.45;;;5.72;;
58876;SDS011;44659;47.002;9.536;2022-09-01T05:06:58;11.30;;;5.00;;
58876;SDS011;44659;47.002;9.536;2022-09-01T05:09:25;7.63;;;5.40;;
58876;SDS011;44659;47.002;9.536;2022-09-01T05:11:50;9.02;;;5.68;;
58876;SDS011;44659;47.002;9.536;2022-09-01T05:14:16;9.88;;;5.40;;
58876;SDS011;44659;47.002;9.536;2022-09-01T05:16:44;9.15;;;5.38;;
58876;SDS011;44659;47.002;9.536;2022-09-01T05:19:09;10.13;;;5.78;;
58876;SDS011;44659;47.002;9.536;2022-09-01T05:21:42;9.15;;;6.15;;
58876;SDS011;44659;47.002;9.536;2022-09-01T05:24:09;10.52;;;6.13;;
58876;SDS011;44659;47.002;9.536;2022-09-01T05:26:36;10.48;;;5.97;;
58876;SDS011;44659;47.002;9.536;2022-09-01T05:29:05;9.88;;;5.80;;
58876;SDS011;44659;47.002;9.536;2022-09-01T05:31:37;11.10;;;6.05;;
58876;SDS011;44659;47.002;9.536;2022-09-01T05:34:03;8.93;;;6.32;;
58876;SDS011;44659;47.002;9.536;2022-09-01T05:36:28;8.68;;;6.18;;
58876;SDS011;44659;47.002;9.536;2022-09-01T05:38:57;10.95;;;6.60;;
58876;SDS011;44659;47.002;9.536;2022-09-01T05:41:23;10.57;;;5.97;;
58876;SDS011;44659;47.002;9.536;2022-09-01T05:43:48;8.98;;;5.70;;
58876;SDS011;44659;47.002;9.536;2022-09-01T05:46:16;11.90;;;6.07;;
58876;SDS011;44659;47.002;9.536;2022-09-01T05:48:43;17.13;;;6.28;;
58876;SDS011;44659;47.002;9.536;2022-09-01T05:51:09;9.18;;;6.32;;
58876;SDS011;44659;47.002;9.536;2022-09-01T05:53:35;10.18;;;5.85;;
58876;SDS011;44659;47.002;9.536;2022-09-01T05:56:05;10.75;;;6.47;;
58876;SDS011;44659;47.002;9.536;2022-09-01T05:58:32;10.25;;;6.53;;
58876;SDS011;44659;47.002;9.536;2022-09-01T06:00:58;12.25;;;5.53;;
58876;SDS011;44659;47.002;9.536;2022-09-01T06:03:24;8.05;;;6.18;;
58876;SDS011;44659;47.002;9.536;2022-09-01T06:05:51;13.50;;;5.78;;
58876;SDS011;44659;47.002;9.536;2022-09-01T06:08:18;8.75;;;5.72;;
58876;SDS011;44659;47.002;9.536;2022-09-01T06:10:44;8.38;;;6.00;;
58876;SDS011;44659;47.002;9.536;2022-09-01T06:13:10;9.75;;;5.97;;
58876;SDS011;44659;47.002;9.536;2022-09-01T06:15:37;7.40;;;5.43;;
58876;SDS011;44659;47.002;9.536;2022-09-01T06:18:03;8.48;;;6.30;;
58876;SDS011;44659;47.002;9.536;2022-09-01T06:20:29;8.20;;;5.85;;
58876;SDS011;44659;47.002;9.536;2022-09-01T06:22:55;10.07;;;6.15;;
58876;SDS011;44659;47.002;9.536;2022-09-01T06:25:20;11.23;;;6.10;;
58876;SDS011;44659;47.002;9.536;2022-09-01T06:27:45;9.93;;;6.60;;
58876;SDS011;44659;47.002;9.536;2022-09-01T06:30:12;15.10;;;7.15;;
58876;SDS011;44659;47.002;9.536;2022-09-01T06:32:42;10.57;;;6.55;;
58876;SDS011;44659;47.002;9.536;2022-09-01T06:35:11;10.65;;;6.22;;
58876;SDS011;44659;47.002;9.536;2022-09-01T06:37:41;12.52;;;6.40;;
58876;SDS011;44659;47.002;9.536;2022-09-01T06:40:08;9.38;;;6.65;;
58876;SDS011;44659;47.002;9.536;2022-09-01T06:42:40;10.25;;;6.25;;
58876;SDS011;44659;47.002;9.536;2022-09-01T06:45:07;11.50;;;7.10;;
58876;SDS011;44659;47.002;9.536;2022-09-01T06:47:34;8.32;;;6.30;;
58876;SDS011;44659;47.002;9.536;2022-09-01T06:49:59;10.38;;;6.68;;
58876;SDS011;44659;47.002;9.536;2022-09-01T06:52:25;8.88;;;6.45;;
58876;SDS011;44659;47.002;9.536;2022-09-01T06:54:50;11.13;;;6.67;;
58876;SDS011;44659;47.002;9.536;2022-09-01T06:57:17;9.02;;;6.30;;
58876;SDS011;44659;47.002;9.536;2022-09-01T06:59:43;11.40;;;6.73;;
58876;SDS011;44659;47.002;9.536;2022-09-01T07:02:08;8.10;;;5.87;;
58876;SDS011;44659;47.002;9.536;2022-09-01T07:04:33;10.02;;;6.05;;
58876;SDS011;44659;47.002;9.536;2022-09-01T07:07:03;10.95;;;5.65;;
58876;SDS011;44659;47.002;9.536;2022-09-01T07:09:29;10.20;;;6.10;;
58876;SDS011;44659;47.002;9.536;2022-09-01T07:11:55;11.13;;;6.90;;
58876;SDS011;44659;47.002;9.536;2022-09-01T07:14:22;10.80;;;6.03;;
58876;SDS011;44659;47.002;9.536;2022-09-01T07:16:47;8.40;;;6.20;;
58876;SDS011;44659;47.002;9.536;2022-09-01T07:19:12;14.73;;;6.73;;
58876;SDS011;44659;47.002;9.536;2022-09-01T07:21:39;11.43;;;6.05;;
58876;SDS011;44659;47.002;9.536;2022-09-01T07:24:04;8.13;;;5.82;;
58876;SDS011;44659;47.002;9.536;2022-09-01T07:26:30;8.95;;;6.13;;
58876;SDS011;44659;47.002;9.536;2022-09-01T07:28:59;9.07;;;6.43;;
58876;SDS011;44659;47.002;9.536;2022-09-01T07:31:28;11.07;;;6.25;;
58876;SDS011;44659;47.002;9.536;2022-09-01T07:33:55;9.55;;;6.18;;
58876;SDS011;44659;47.002;9.536;2022-09-01T07:36:22;9.98;;;6.47;;
58876;SDS011;44659;47.002;9.536;2022-09-01T07:38:48;10.35;;;6.10;;
58876;SDS011;44659;47.002;9.536;2022-09-01T07:41:18;9.70;;;6.13;;
58876;SDS011;44659;47.002;9.536;2022-09-01T07:43:43;11.02;;;6.57;;
58876;SDS011;44659;47.002;9.536;2022-09-01T07:46:09;10.38;;;6.18;;
58876;SDS011;44659;47.002;9.536;2022-09-01T07:48:34;10.02;;;6.28;;
58876;SDS011;44659;47.002;9.536;2022-09-01T07:50:59;11.67;;;6.60;;
58876;SDS011;44659;47.002;9.536;2022-09-01T07:53:25;10.38;;;6.32;;
58876;SDS011;44659;47.002;9.536;2022-09-01T07:55:56;11.27;;;5.60;;
58876;SDS011;44659;47.002;9.536;2022-09-01T07:58:22;11.25;;;6.32;;
58876;SDS011;44659;47.002;9.536;2022-09-01T08:00:48;9.15;;;6.68;;
58876;SDS011;44659;47.002;9.536;2022-09-01T08:03:14;10.13;;;6.63;;
58876;SDS011;44659;47.002;9.536;2022-09-01T08:05:39;9.95;;;5.78;;
58876;SDS011;44659;47.002;9.536;2022-09-01T08:08:05;10.83;;;6.60;;
58876;SDS011;44659;47.002;9.536;2022-09-01T08:10:30;11.50;;;5.97;;
58876;SDS011;44659;47.002;9.536;2022-09-01T08:12:55;10.48;;;6.28;;
58876;SDS011;44659;47.002;9.536;2022-09-01T08:15:21;10.05;;;6.53;;
58876;SDS011;44659;47.002;9.536;2022-09-01T08:17:46;10.55;;;6.90;;
58876;SDS011;44659;47.002;9.536;2022-09-01T08:20:11;8.95;;;6.20;;
58876;SDS011;44659;47.002;9.536;2022-09-01T08:22:36;10.38;;;6.07;;
58876;SDS011;44659;47.002;9.536;2022-09-01T08:25:03;11.88;;;6.30;;
58876;SDS011;44659;47.002;9.536;2022-09-01T08:27:30;9.70;;;5.88;;
58876;SDS011;44659;47.002;9.536;2022-09-01T08:29:55;7.95;;;5.70;;
58876;SDS011;44659;47.002;9.536;2022-09-01T08:32:21;8.30;;;5.25;;
58876;SDS011;44659;47.002;9.536;2022-09-01T08:34:46;10.63;;;5.97;;
58876;SDS011;44659;47.002;9.536;2022-09-01T08:37:11;7.85;;;5.18;;
58876;SDS011;44659;47.002;9.536;2022-09-01T08:39:37;8.10;;;5.20;;
58876;SDS011;44659;47.002;9.536;2022-09-01T08:47:17;8.32;;;3.80;;
58876;SDS011;44659;47.002;9.536;2022-09-01T08:49:43;6.38;;;3.85;;
58876;SDS011;44659;47.002;9.536;2022-09-01T08:52:23;6.30;;;3.45;;
58876;SDS011;44659;47.002;9.536;2022-09-01T08:54:52;12.05;;;4.85;;
58876;SDS011;44659;47.002;9.536;2022-09-01T08:57:34;5.90;;;3.67;;
58876;SDS011;44659;47.002;9.536;2022-09-01T09:00:00;6.80;;;4.00;;
58876;SDS011;44659;47.002;9.536;2022-09-01T09:04:58;5.13;;;3.20;;
58876;SDS011;44659;47.002;9.536;2022-09-01T09:10:11;5.90;;;3.70;;
58876;SDS011;44659;47.002;9.536;2022-09-01T09:17:50;5.50;;;3.28;;
58876;SDS011;44659;47.002;9.536;2022-09-01T09:20:23;5.23;;;3.30;;
58876;SDS011;44659;47.002;9.536;2022-09-01T09:22:48;7.13;;;4.10;;
58876;SDS011;44659;47.002;9.536;2022-09-01T09:25:14;5.00;;;3.30;;
58876;SDS011;44659;47.002;9.536;2022-09-01T09:27:41;5.65;;;2.80;;
58876;SDS011;44659;47.002;9.536;2022-09-01T09:30:14;6.13;;;3.30;;
58876;SDS011;44659;47.002;9.536;2022-09-01T09:37:55;8.40;;;3.70;;
58876;SDS011;44659;47.002;9.536;2022-09-01T09:43:20;6.35;;;3.90;;
58876;SDS011;44659;47.002;9.536;2022-09-01T09:45:47;6.18;;;3.80;;
58876;SDS011;44659;47.002;9.536;2022-09-01T09:48:29;6.57;;;3.20;;
58876;SDS011;44659;47.002;9.536;2022-09-01T09:50:55;6.82;;;3.42;;
58876;SDS011;44659;47.002;9.536;2022-09-01T09:58:19;4.82;;;2.38;;
58876;SDS011;44659;47.002;9.536;2022-09-01T10:00:56;5.65;;;2.95;;
58876;SDS011;44659;47.002;9.536;2022-09-01T10:03:32;5.95;;;3.17;;
58876;SDS011;44659;47.002;9.536;2022-09-01T10:05:57;6.80;;;3.00;;
58876;SDS011;44659;47.002;9.536;2022-09-01T10:10:51;6.63;;;3.20;;
58876;SDS011;44659;47.002;9.536;2022-09-01T10:13:22;5.75;;;2.78;;
58876;SDS011;44659;47.002;9.536;2022-09-01T10:15:48;7.45;;;2.58;;
58876;SDS011;44659;47.002;9.536;2022-09-01T10:18:15;4.82;;;2.53;;
58876;SDS011;44659;47.002;9.536;2022-09-01T10:20:45;5.47;;;2.55;;
58876;SDS011;44659;47.002;9.536;2022-09-01T10:23:12;4.90;;;2.70;;
58876;SDS011;44659;47.002;9.536;2022-09-01T10:25:37;4.38;;;2.30;;
58876;SDS011;44659;47.002;9.536;2022-09-01T10:28:07;9.30;;;3.67;;
58876;SDS011;44659;47.002;9.536;2022-09-01T10:30:33;4.65;;;2.33;;
58876;SDS011;44659;47.002;9.536;2022-09-01T10:33:01;5.65;;;2.25;;
58876;SDS011;44659;47.002;9.536;2022-09-01T10:35:28;4.57;;;2.30;;
58876;SDS011;44659;47.002;9.536;2022-09-01T10:37:54;6.07;;;2.60;;
58876;SDS011;44659;47.002;9.536;2022-09-01T10:42:46;5.15;;;2.75;;
58876;SDS011;44659;47.002;9.536;2022-09-01T10:45:16;4.18;;;2.30;;
58876;SDS011;44659;47.002;9.536;2022-09-01T10:47:42;5.00;;;2.30;;
58876;SDS011;44659;47.002;9.536;2022-09-01T10:53:02;3.30;;;1.85;;
58876;SDS011;44659;47.002;9.536;2022-09-01T10:55:38;4.75;;;2.35;;
58876;SDS011;44659;47.002;9.536;2022-09-01T11:10:55;3.90;;;1.90;;
58876;SDS011;44659;47.002;9.536;2022-09-01T11:15:47;3.83;;;2.13;;
58876;SDS011;44659;47.002;9.536;2022-09-01T11:18:14;4.32;;;1.88;;
58876;SDS011;44659;47.002;9.536;2022-09-01T11:20:39;6.03;;;1.90;;
58876;SDS011;44659;47.002;9.536;2022-09-01T11:23:19;4.32;;;2.28;;
58876;SDS011;44659;47.002;9.536;2022-09-01T11:25:46;3.47;;;1.73;;
58876;SDS011;44659;47.002;9.536;2022-09-01T11:30:48;4.70;;;2.22;;
58876;SDS011;44659;47.002;9.536;2022-09-01T11:33:28;5.40;;;2.42;;
58876;SDS011;44659;47.002;9.536;2022-09-01T11:38:24;4.75;;;2.25;;
58876;SDS011;44659;47.002;9.536;2022-09-01T11:40:54;5.32;;;2.55;;
58876;SDS011;44659;47.002;9.536;2022-09-01T11:43:20;4.93;;;2.60;;
58876;SDS011;44659;47.002;9.536;2022-09-01T11:48:15;3.90;;;2.20;;
58876;SDS011;44659;47.002;9.536;2022-09-01T11:50:40;4.72;;;2.70;;
58876;SDS011;44659;47.002;9.536;2022-09-01T11:53:13;4.82;;;2.95;;
58876;SDS011;44659;47.002;9.536;2022-09-01T11:55:45;4.50;;;2.58;;
58876;SDS011;44659;47.002;9.536;2022-09-01T11:58:13;4.55;;;2.58;;
58876;SDS011;44659;47.002;9.536;2022-09-01T12:00:39;5.68;;;2.63;;
58876;SDS011;44659;47.002;9.536;2022-09-01T12:03:05;5.00;;;2.40;;
58876;SDS011;44659;47.002;9.536;2022-09-01T12:05:43;4.63;;;2.50;;
58876;SDS011;44659;47.002;9.536;2022-09-01T12:08:10;5.93;;;2.60;;
58876;SDS011;44659;47.002;9.536;2022-09-01T12:10:38;4.85;;;2.88;;
58876;SDS011;44659;47.002;9.536;2022-09-01T12:15:33;7.00;;;2.95;;
58876;SDS011;44659;47.002;9.536;2022-09-01T12:18:14;5.00;;;2.50;;
58876;SDS011;44659;47.002;9.536;2022-09-01T12:20:43;5.13;;;2.60;;
58876;SDS011;44659;47.002;9.536;2022-09-01T12:23:16;3.88;;;2.08;;
58876;SDS011;44659;47.002;9.536;2022-09-01T12:25:42;4.22;;;2.15;;
58876;SDS011;44659;47.002;9.536;2022-09-01T12:28:08;5.05;;;2.40;;
58876;SDS011;44659;47.002;9.536;2022-09-01T12:30:35;4.20;;;2.13;;
58876;SDS011;44659;47.002;9.536;2022-09-01T12:33:04;8.77;;;2.03;;
58876;SDS011;44659;47.002;9.536;2022-09-01T12:35:30;4.53;;;2.67;;
58876;SDS011;44659;47.002;9.536;2022-09-01T12:40:39;5.07;;;2.72;;
58876;SDS011;44659;47.002;9.536;2022-09-01T12:43:04;6.43;;;2.70;;
58876;SDS011;44659;47.002;9.536;2022-09-01T12:45:40;4.60;;;2.07;;
58876;SDS011;44659;47.002;9.536;2022-09-01T12:48:06;4.72;;;2.60;;
58876;SDS011;44659;47.002;9.536;2022-09-01T12:50:47;4.65;;;2.20;;
58876;SDS011;44659;47.002;9.536;2022-09-01T12:53:15;5.75;;;2.20;;
58876;SDS011;44659;47.002;9.536;2022-09-01T12:55:52;4.20;;;2.25;;
58876;SDS011;44659;47.002;9.536;2022-09-01T12:58:22;6.82;;;2.40;;
58876;SDS011;44659;47.002;9.536;2022-09-01T13:00:53;3.60;;;2.17;;
58876;SDS011;44659;47.002;9.536;2022-09-01T13:03:19;4.22;;;2.15;;
58876;SDS011;44659;47.002;9.536;2022-09-01T13:05:52;4.28;;;2.20;;
58876;SDS011;44659;47.002;9.536;2022-09-01T13:08:18;4.18;;;2.20;;
58876;SDS011;44659;47.002;9.536;2022-09-01T13:10:45;4.75;;;2.10;;
58876;SDS011;44659;47.002;9.536;2022-09-01T13:13:11;4.72;;;2.20;;
58876;SDS011;44659;47.002;9.536;2022-09-01T13:15:51;4.95;;;2.00;;
58876;SDS011;44659;47.002;9.536;2022-09-01T13:18:17;5.15;;;2.10;;
58876;SDS011;44659;47.002;9.536;2022-09-01T13:20:43;8.35;;;2.08;;
58876;SDS011;44659;47.002;9.536;2022-09-01T13:23:08;3.60;;;2.03;;
58876;SDS011;44659;47.002;9.536;2022-09-01T13:25:33;2.85;;;1.42;;
58876;SDS011;44659;47.002;9.536;2022-09-01T13:30:56;3.85;;;1.77;;
58876;SDS011;44659;47.002;9.536;2022-09-01T13:33:22;4.45;;;1.60;;
58876;SDS011;44659;47.002;9.536;2022-09-01T13:35:48;4.28;;;1.77;;
58876;SDS011;44659;47.002;9.536;2022-09-01T13:38:14;3.35;;;1.42;;
58876;SDS011;44659;47.002;9.536;2022-09-01T13:40:40;4.45;;;1.90;;
58876;SDS011;44659;47.002;9.536;2022-09-01T13:43:12;3.85;;;1.65;;
58876;SDS011;44659;47.002;9.536;2022-09-01T13:45:40;3.25;;;1.80;;
58876;SDS011;44659;47.002;9.536;2022-09-01T13:48:06;5.00;;;1.45;;
58876;SDS011;44659;47.002;9.536;2022-09-01T13:50:32;2.50;;;1.23;;
58876;SDS011;44659;47.002;9.536;2022-09-01T13:53:03;4.70;;;1.77;;
58876;SDS011;44659;47.002;9.536;2022-09-01T13:55:29;2.92;;;1.60;;
58876;SDS011;44659;47.002;9.536;2022-09-01T13:57:55;4.03;;;1.30;;
58876;SDS011;44659;47.002;9.536;2022-09-01T14:00:23;2.88;;;1.58;;
58876;SDS011;44659;47.002;9.536;2022-09-01T14:02:50;2.25;;;1.10;;
58876;SDS011;44659;47.002;9.536;2022-09-01T14:05:21;2.70;;;1.38;;
58876;SDS011;44659;47.002;9.536;2022-09-01T14:07:47;3.55;;;1.50;;
58876;SDS011;44659;47.002;9.536;2022-09-01T14:10:13;2.72;;;1.25;;
58876;SDS011;44659;47.002;9.536;2022-09-01T14:12:38;11.40;;;6.30;;
58876;SDS011;44659;47.002;9.536;2022-09-01T14:15:03;6.78;;;4.20;;
58876;SDS011;44659;47.002;9.536;2022-09-01T14:17:29;2.88;;;1.48;;
58876;SDS011;44659;47.002;9.536;2022-09-01T14:19:54;6.70;;;1.73;;
58876;SDS011;44659;47.002;9.536;2022-09-01T14:22:21;1.98;;;1.17;;
58876;SDS011;44659;47.002;9.536;2022-09-01T14:24:46;5.50;;;1.60;;
58876;SDS011;44659;47.002;9.536;2022-09-01T14:27:11;2.75;;;1.30;;
58876;SDS011;44659;47.002;9.536;2022-09-01T14:29:37;2.30;;;1.20;;
58876;SDS011;44659;47.002;9.536;2022-09-01T14:32:02;4.93;;;1.60;;
58876;SDS011;44659;47.002;9.536;2022-09-01T14:34:28;3.53;;;1.50;;
58876;SDS011;44659;47.002;9.536;2022-09-01T14:36:54;2.17;;;1.20;;
58876;SDS011;44659;47.002;9.536;2022-09-01T14:39:21;3.17;;;1.35;;
58876;SDS011;44659;47.002;9.536;2022-09-01T14:41:46;3.95;;;1.15;;
58876;SDS011;44659;47.002;9.536;2022-09-01T14:44:11;3.67;;;1.30;;
58876;SDS011;44659;47.002;9.536;2022-09-01T14:46:36;2.73;;;1.20;;
58876;SDS011;44659;47.002;9.536;2022-09-01T14:49:03;3.05;;;1.50;;
58876;SDS011;44659;47.002;9.536;2022-09-01T14:51:29;3.15;;;1.73;;
58876;SDS011;44659;47.002;9.536;2022-09-01T14:53:55;4.65;;;1.98;;
58876;SDS011;44659;47.002;9.536;2022-09-01T14:56:20;3.13;;;1.80;;
58876;SDS011;44659;47.002;9.536;2022-09-01T14:58:46;2.50;;;1.42;;
58876;SDS011;44659;47.002;9.536;2022-09-01T15:01:15;3.08;;;1.42;;
58876;SDS011;44659;47.002;9.536;2022-09-01T15:03:41;5.53;;;3.45;;
58876;SDS011;44659;47.002;9.536;2022-09-01T15:06:06;4.70;;;2.75;;
58876;SDS011;44659;47.002;9.536;2022-09-01T15:08:32;3.03;;;1.60;;
58876;SDS011;44659;47.002;9.536;2022-09-01T15:10:57;3.87;;;1.93;;
58876;SDS011;44659;47.002;9.536;2022-09-01T15:13:25;2.95;;;1.20;;
58876;SDS011;44659;47.002;9.536;2022-09-01T15:15:50;4.25;;;1.30;;
58876;SDS011;44659;47.002;9.536;2022-09-01T15:18:17;12.98;;;2.17;;
58876;SDS011;44659;47.002;9.536;2022-09-01T15:20:42;3.00;;;1.40;;
58876;SDS011;44659;47.002;9.536;2022-09-01T15:23:11;2.13;;;1.20;;
58876;SDS011;44659;47.002;9.536;2022-09-01T15:25:36;2.10;;;1.13;;
58876;SDS011;44659;47.002;9.536;2022-09-01T15:28:02;2.47;;;1.38;;
58876;SDS011;44659;47.002;9.536;2022-09-01T15:30:27;2.83;;;1.05;;
58876;SDS011;44659;47.002;9.536;2022-09-01T15:32:53;3.58;;;1.40;;
58876;SDS011;44659;47.002;9.536;2022-09-01T15:35:19;2.88;;;1.40;;
58876;SDS011;44659;47.002;9.536;2022-09-01T15:37:45;1.98;;;1.20;;
58876;SDS011;44659;47.002;9.536;2022-09-01T15:40:12;3.65;;;1.38;;
58876;SDS011;44659;47.002;9.536;2022-09-01T15:42:37;3.78;;;1.70;;
58876;SDS011;44659;47.002;9.536;2022-09-01T15:45:04;2.83;;;1.25;;
58876;SDS011;44659;47.002;9.536;2022-09-01T15:47:29;15.05;;;1.38;;
58876;SDS011;44659;47.002;9.536;2022-09-01T15:49:54;2.30;;;1.10;;
58876;SDS011;44659;47.002;9.536;2022-09-01T15:52:20;2.73;;;1.30;;
58876;SDS011;44659;47.002;9.536;2022-09-01T15:54:45;4.87;;;1.40;;
58876;SDS011;44659;47.002;9.536;2022-09-01T15:57:10;3.40;;;1.40;;
58876;SDS011;44659;47.002;9.536;2022-09-01T15:59:36;2.65;;;1.35;;
58876;SDS011;44659;47.002;9.536;2022-09-01T16:02:04;2.70;;;1.30;;
58876;SDS011;44659;47.002;9.536;2022-09-01T16:04:30;2.65;;;1.42;;
58876;SDS011;44659;47.002;9.536;2022-09-01T16:06:55;3.53;;;1.40;;
58876;SDS011;44659;47.002;9.536;2022-09-01T16:09:21;2.55;;;1.48;;
58876;SDS011;44659;47.002;9.536;2022-09-01T16:11:46;3.70;;;1.30;;
58876;SDS011;44659;47.002;9.536;2022-09-01T16:14:13;3.55;;;1.60;;
58876;SDS011;44659;47.002;9.536;2022-09-01T16:22:25;2.38;;;1.48;;